createdAt,value
2018-06-05T00:00:53.393Z,83.20
2018-06-05T00:03:21.269Z,81.70
2018-06-05T00:05:49.168Z,84.30
2018-06-05T00:08:17.057Z,83.00
2018-06-05T00:10:44.956Z,83.30
2018-06-05T00:13:12.909Z,83.30
2018-06-05T00:15:40.770Z,83.00
2018-06-05T00:18:08.635Z,84.40
2018-06-05T00:20:36.545Z,84.70
2018-06-05T00:23:04.405Z,85.00
2018-06-05T00:25:32.288Z,84.90
2018-06-05T00:28:00.198Z,85.20
2018-06-05T00:30:28.023Z,85.20
2018-06-05T00:32:55.896Z,84.00
2018-06-05T00:35:23.765Z,85.00
2018-06-05T00:37:51.696Z,85.20
2018-06-05T00:40:19.561Z,85.30
2018-06-05T00:42:47.449Z,84.80
2018-06-05T00:45:15.328Z,85.20
2018-06-05T00:47:43.127Z,86.70
2018-06-05T00:50:10.998Z,86.40
2018-06-05T00:52:38.916Z,87.00
2018-06-05T00:55:06.781Z,85.50
2018-06-05T00:57:34.729Z,85.90
2018-06-05T01:00:02.631Z,85.60
2018-06-05T01:02:30.516Z,85.90
2018-06-05T01:04:58.312Z,85.30
2018-06-05T01:07:26.147Z,86.50
2018-06-05T01:09:54.036Z,86.20
2018-06-05T01:12:21.933Z,86.50
2018-06-05T01:14:49.754Z,86.00
2018-06-05T01:17:17.569Z,88.00
2018-06-05T01:19:45.449Z,87.30
2018-06-05T01:22:13.338Z,87.40
2018-06-05T01:24:41.257Z,88.00
2018-06-05T01:27:12.053Z,88.00
2018-06-05T01:29:39.989Z,87.90
2018-06-05T01:32:07.911Z,88.20
2018-06-05T01:34:36.228Z,87.50
2018-06-05T01:37:04.277Z,86.70
2018-06-05T01:41:59.973Z,88.20
2018-06-05T01:44:27.803Z,88.10
2018-06-05T01:49:23.529Z,88.40
2018-06-05T01:51:51.309Z,89.80
2018-06-05T01:54:19.189Z,90.00
2018-06-05T01:59:14.964Z,90.00
2018-06-05T02:01:42.784Z,90.00
2018-06-05T02:04:10.651Z,90.10
2018-06-05T02:06:38.472Z,89.50
2018-06-05T02:09:06.350Z,89.30
2018-06-05T02:11:34.237Z,90.20
2018-06-05T02:14:02.157Z,90.40
2018-06-05T02:16:30.066Z,90.70
2018-06-05T02:18:57.981Z,90.70
2018-06-05T02:21:25.813Z,90.80
2018-06-05T02:23:53.787Z,90.40
2018-06-05T02:26:21.648Z,90.90
2018-06-05T02:31:17.302Z,90.40
2018-06-05T02:33:45.231Z,90.50
2018-06-05T02:36:13.117Z,90.30
2018-06-05T02:38:40.985Z,90.50
2018-06-05T02:41:08.873Z,90.70
2018-06-05T02:46:04.590Z,91.30
2018-06-05T02:48:32.445Z,90.90
2018-06-05T02:51:00.327Z,91.40
2018-06-05T02:53:28.251Z,91.30
2018-06-05T02:55:56.108Z,90.90
2018-06-05T02:58:24.030Z,91.40
2018-06-05T03:00:51.825Z,91.70
2018-06-05T03:03:19.762Z,91.00
2018-06-05T03:05:47.624Z,92.10
2018-06-05T03:08:15.473Z,91.30
2018-06-05T03:10:43.342Z,91.30
2018-06-05T03:13:11.221Z,91.70
2018-06-05T03:15:39.035Z,90.80
2018-06-05T03:18:06.842Z,91.50
2018-06-05T03:20:34.740Z,91.20
2018-06-05T03:23:02.604Z,91.60
2018-06-05T03:25:30.518Z,91.90
2018-06-05T03:27:58.397Z,91.90
2018-06-05T03:30:26.277Z,91.50
2018-06-05T03:32:54.109Z,91.40
2018-06-05T03:35:22.022Z,91.80
2018-06-05T03:37:49.928Z,91.80
2018-06-05T03:40:17.800Z,91.30
2018-06-05T03:42:45.647Z,91.90
2018-06-05T03:45:13.554Z,91.80
2018-06-05T03:47:41.441Z,92.00
2018-06-05T03:50:09.260Z,91.80
2018-06-05T03:52:37.161Z,91.40
2018-06-05T03:55:05.017Z,92.10
2018-06-05T03:57:32.793Z,91.80
2018-06-05T04:00:00.593Z,92.10
2018-06-05T04:02:29.930Z,91.70
2018-06-05T04:04:57.857Z,91.70
2018-06-05T04:07:25.749Z,90.80
2018-06-05T04:09:53.632Z,91.50
2018-06-05T04:12:21.506Z,91.40
2018-06-05T04:14:49.365Z,91.10
2018-06-05T04:17:17.257Z,91.00
2018-06-05T04:19:45.206Z,91.20
2018-06-05T04:22:13.113Z,90.90
2018-06-05T04:24:44.293Z,91.10
2018-06-05T04:27:12.292Z,91.00
2018-06-05T04:29:40.204Z,90.40
2018-06-05T04:32:08.358Z,90.80
2018-06-05T04:34:36.252Z,90.40
2018-06-05T04:37:04.093Z,90.60
2018-06-05T04:39:31.942Z,90.50
2018-06-05T04:44:27.964Z,89.70
2018-06-05T04:46:55.876Z,89.40
2018-06-05T04:49:23.742Z,88.60
2018-06-05T04:51:51.666Z,89.10
2018-06-05T04:54:19.592Z,89.70
2018-06-05T04:56:47.522Z,87.50
2018-06-05T04:59:15.377Z,85.90
2018-06-05T05:01:43.229Z,84.60
2018-06-05T05:04:11.168Z,82.20
2018-06-05T05:06:41.550Z,79.20
2018-06-05T05:09:09.477Z,81.20
2018-06-05T05:11:37.328Z,79.10
2018-06-05T05:14:05.301Z,77.60
2018-06-05T05:16:33.305Z,75.20
2018-06-05T05:19:01.304Z,73.90
2018-06-05T05:21:29.345Z,73.40
2018-06-05T05:26:25.081Z,69.70
2018-06-05T05:28:52.993Z,67.40
2018-06-05T05:31:20.872Z,66.80
2018-06-05T05:33:48.836Z,68.30
2018-06-05T05:36:16.788Z,66.10
2018-06-05T05:38:44.641Z,65.20
2018-06-05T05:43:40.499Z,65.60
2018-06-05T05:46:08.398Z,65.60
2018-06-05T05:48:36.229Z,65.50
2018-06-05T05:51:04.179Z,68.30
2018-06-05T05:53:32.212Z,68.40
2018-06-05T05:56:00.169Z,66.70
2018-06-05T05:58:28.116Z,65.30
2018-06-05T06:00:56.172Z,65.80
2018-06-05T06:03:24.048Z,65.90
2018-06-05T06:05:51.898Z,65.00
2018-06-05T06:08:19.748Z,65.70
2018-06-05T06:10:47.578Z,64.10
2018-06-05T06:13:15.444Z,64.60
2018-06-05T06:15:43.261Z,66.20
2018-06-05T06:18:11.046Z,64.40
2018-06-05T06:20:38.938Z,63.60
2018-06-05T06:23:06.795Z,67.10
2018-06-05T06:25:34.613Z,65.40
2018-06-05T06:28:02.618Z,65.00
2018-06-05T06:30:30.611Z,67.90
2018-06-05T06:32:58.447Z,66.20
2018-06-05T06:35:26.796Z,65.60
2018-06-05T06:37:54.641Z,63.80
2018-06-05T06:40:22.505Z,67.70
2018-06-05T06:42:50.451Z,69.00
2018-06-05T06:45:18.333Z,68.30
2018-06-05T06:47:46.205Z,67.90
2018-06-05T06:50:14.097Z,66.70
2018-06-05T06:52:41.941Z,67.80
2018-06-05T06:55:09.848Z,67.40
2018-06-05T06:57:37.740Z,63.30
2018-06-05T07:00:05.663Z,61.60
2018-06-05T07:02:33.641Z,62.30
2018-06-05T07:05:01.908Z,63.00
2018-06-05T07:07:29.837Z,64.30
2018-06-05T07:09:57.765Z,64.50
2018-06-05T07:12:25.613Z,63.60
2018-06-05T07:14:53.515Z,64.50
2018-06-05T07:17:21.453Z,65.20
2018-06-05T07:19:49.256Z,65.30
2018-06-05T07:24:45.004Z,67.70
2018-06-05T07:27:12.869Z,68.80
2018-06-05T07:29:40.790Z,69.10
2018-06-05T07:32:08.693Z,67.00
2018-06-05T07:37:04.447Z,66.60
2018-06-05T07:39:32.255Z,66.50
2018-06-05T07:42:00.161Z,67.50
2018-06-05T07:44:28.031Z,68.30
2018-06-05T07:46:55.921Z,67.40
2018-06-05T07:49:23.797Z,67.90
2018-06-05T07:51:51.661Z,67.20
2018-06-05T07:54:19.526Z,70.20
2018-06-05T07:56:47.409Z,69.40
2018-06-05T07:59:15.266Z,69.30
2018-06-05T08:01:43.141Z,70.10
2018-06-05T08:04:10.977Z,69.10
2018-06-05T08:06:38.796Z,68.80
2018-06-05T08:09:08.577Z,68.10
2018-06-05T08:11:36.773Z,66.90
2018-06-05T08:14:04.668Z,67.10
2018-06-05T08:16:32.623Z,65.80
2018-06-05T08:19:00.571Z,67.00
2018-06-05T08:21:28.437Z,66.20
2018-06-05T08:23:56.249Z,66.20
2018-06-05T08:26:31.641Z,67.90
2018-06-05T08:28:59.505Z,66.90
2018-06-05T08:31:27.366Z,66.80
2018-06-05T08:33:55.237Z,65.50
2018-06-05T08:36:23.126Z,65.00
2018-06-05T08:38:50.981Z,66.30
2018-06-05T08:41:19.009Z,66.60
2018-06-05T08:43:46.928Z,66.80
2018-06-05T08:46:14.714Z,65.90
2018-06-05T08:48:42.529Z,67.70
2018-06-05T08:51:10.349Z,67.10
2018-06-05T08:53:38.185Z,66.40
2018-06-05T08:56:06.021Z,66.30
2018-06-05T08:58:33.933Z,65.60
2018-06-05T09:01:01.826Z,65.30
2018-06-05T09:03:29.712Z,65.70
2018-06-05T09:05:57.600Z,65.50
2018-06-05T09:08:25.463Z,65.40
2018-06-05T09:10:53.261Z,65.20
2018-06-05T09:13:21.140Z,64.90
2018-06-05T09:15:49.029Z,65.20
2018-06-05T09:18:16.919Z,64.30
2018-06-05T09:20:44.826Z,64.40
2018-06-05T09:23:12.721Z,64.30
2018-06-05T09:25:40.601Z,64.10
2018-06-05T09:28:08.556Z,64.50
2018-06-05T09:30:36.432Z,63.90
2018-06-05T09:33:04.293Z,63.30
2018-06-05T09:35:32.215Z,64.60
2018-06-05T09:38:00.125Z,63.90
2018-06-05T09:40:28.008Z,64.00
2018-06-05T09:42:55.860Z,64.20
2018-06-05T09:45:23.777Z,63.20
2018-06-05T09:47:51.714Z,63.40
2018-06-05T09:50:19.609Z,61.70
2018-06-05T09:52:47.513Z,61.60
2018-06-05T09:55:15.364Z,60.10
2018-06-05T09:57:43.230Z,57.90
2018-06-05T10:00:11.101Z,54.50
2018-06-05T10:02:38.936Z,53.60
2018-06-05T10:05:06.836Z,51.00
2018-06-05T10:07:34.681Z,50.80
2018-06-05T10:10:02.614Z,49.40
2018-06-05T10:12:30.497Z,48.80
2018-06-05T10:14:58.349Z,49.10
2018-06-05T10:17:26.277Z,49.00
2018-06-05T10:19:54.209Z,47.70
2018-06-05T10:22:22.127Z,44.60
2018-06-05T10:24:50.049Z,44.90
2018-06-05T10:27:17.946Z,45.70
2018-06-05T10:32:13.869Z,43.00
2018-06-05T10:34:41.727Z,44.10
2018-06-05T10:37:09.544Z,43.90
2018-06-05T10:39:37.381Z,41.50
2018-06-05T10:42:05.302Z,40.00
2018-06-05T10:44:33.106Z,39.50
2018-06-05T10:47:00.989Z,40.20
2018-06-05T10:49:29.137Z,41.50
2018-06-05T10:51:56.989Z,39.20
2018-06-05T10:54:24.865Z,40.20
2018-06-05T10:56:52.717Z,39.60
2018-06-05T11:01:49.861Z,38.20
2018-06-05T11:04:17.631Z,39.10
2018-06-05T11:06:45.424Z,37.50
2018-06-05T11:09:13.317Z,35.60
2018-06-05T11:11:41.152Z,36.00
2018-06-05T11:14:09.033Z,36.80
2018-06-05T11:16:36.874Z,35.40
2018-06-05T11:19:04.792Z,37.10
2018-06-05T11:21:32.661Z,36.10
2018-06-05T11:24:00.565Z,35.70
2018-06-05T11:26:28.490Z,35.90
2018-06-05T11:28:56.464Z,35.40
2018-06-05T11:31:24.290Z,36.80
2018-06-05T11:33:52.140Z,35.20
2018-06-05T11:36:20.005Z,36.80
2018-06-05T11:38:48.085Z,34.80
2018-06-05T11:41:16.157Z,35.80
2018-06-05T11:43:44.049Z,34.80
2018-06-05T11:46:14.015Z,34.70
2018-06-05T11:48:43.000Z,34.80
2018-06-05T11:51:10.900Z,34.90
2018-06-05T11:53:38.820Z,34.50
2018-06-05T11:56:06.679Z,35.00
2018-06-05T11:58:34.545Z,34.80
2018-06-05T12:01:02.396Z,34.30
2018-06-05T12:03:30.302Z,35.00
2018-06-05T12:05:58.239Z,36.30
2018-06-05T12:08:26.049Z,34.70
2018-06-05T12:10:53.977Z,35.60
2018-06-05T12:13:21.917Z,34.70
2018-06-05T12:15:50.267Z,36.50
2018-06-05T12:18:18.292Z,35.00
2018-06-05T12:20:46.134Z,34.80
2018-06-05T12:23:14.002Z,34.90
2018-06-05T12:25:42.000Z,37.20
2018-06-05T12:28:09.890Z,35.20
2018-06-05T12:30:37.759Z,35.90
2018-06-05T12:33:05.732Z,33.10
2018-06-05T12:35:33.685Z,33.80
2018-06-05T12:38:01.604Z,33.50
2018-06-05T12:40:29.451Z,33.40
2018-06-05T12:42:57.449Z,34.70
2018-06-05T12:45:25.261Z,33.80
2018-06-05T12:47:53.166Z,36.40
2018-06-05T12:50:21.014Z,34.50
2018-06-05T12:52:48.890Z,34.90
2018-06-05T12:55:16.824Z,34.10
2018-06-05T12:57:44.825Z,33.00
2018-06-05T13:00:12.643Z,32.60
2018-06-05T13:02:40.829Z,32.20
2018-06-05T13:07:36.573Z,32.60
2018-06-05T13:10:04.468Z,35.30
2018-06-05T13:12:32.277Z,34.00
2018-06-05T13:15:01.792Z,33.60
2018-06-05T13:17:29.824Z,33.30
2018-06-05T13:19:57.752Z,33.40
2018-06-05T13:22:25.604Z,32.00
2018-06-05T13:24:53.517Z,34.30
2018-06-05T13:27:21.365Z,31.70
2018-06-05T13:29:49.267Z,33.30
2018-06-05T13:32:17.226Z,34.80
2018-06-05T13:34:45.166Z,34.10
2018-06-05T13:37:13.116Z,36.10
2018-06-05T13:39:40.992Z,36.70
2018-06-05T13:42:08.870Z,35.80
2018-06-05T13:44:36.760Z,35.50
2018-06-05T13:47:04.741Z,36.50
2018-06-05T13:49:32.679Z,37.60
2018-06-05T13:52:00.600Z,37.10
2018-06-05T13:54:28.438Z,37.10
2018-06-05T13:56:57.073Z,36.50
2018-06-05T13:59:24.958Z,38.00
2018-06-05T14:01:53.063Z,37.00
2018-06-05T14:04:20.901Z,38.40
2018-06-05T14:06:48.776Z,39.60
2018-06-05T14:09:20.198Z,40.90
2018-06-05T14:11:49.395Z,41.00
2018-06-05T14:14:17.289Z,40.20
2018-06-05T14:16:45.160Z,40.60
2018-06-05T14:19:12.980Z,40.70
2018-06-05T14:21:40.793Z,40.30
2018-06-05T14:24:09.381Z,39.90
2018-06-05T14:26:37.254Z,41.70
2018-06-05T14:29:08.666Z,41.00
2018-06-05T14:31:37.105Z,39.40
2018-06-05T14:34:05.443Z,40.30
2018-06-05T14:36:34.188Z,39.90
2018-06-05T14:39:03.717Z,40.10
2018-06-05T14:41:31.598Z,39.70
2018-06-05T14:43:59.489Z,39.60
2018-06-05T14:46:27.365Z,40.70
2018-06-05T14:48:55.258Z,41.30
2018-06-05T14:51:23.151Z,39.40
2018-06-05T14:53:51.078Z,40.10
2018-06-05T14:56:19.037Z,38.00
2018-06-05T14:58:46.904Z,36.40
2018-06-05T15:01:14.760Z,35.40
2018-06-05T15:03:42.595Z,37.40
2018-06-05T15:06:10.444Z,37.30
2018-06-05T15:08:38.284Z,36.30
2018-06-05T15:11:06.209Z,36.00
2018-06-05T15:13:34.077Z,36.60
2018-06-05T15:16:01.927Z,37.60
2018-06-05T15:18:29.778Z,37.70
2018-06-05T15:20:57.649Z,39.60
2018-06-05T15:23:25.458Z,40.40
2018-06-05T15:25:53.307Z,40.00
2018-06-05T15:28:21.197Z,39.00
2018-06-05T15:30:49.361Z,39.60
2018-06-05T15:33:17.285Z,38.30
2018-06-05T15:35:45.137Z,36.60
2018-06-05T15:38:13.024Z,36.70
2018-06-05T15:40:40.925Z,35.60
2018-06-05T15:43:08.785Z,36.30
2018-06-05T15:45:36.709Z,38.00
2018-06-05T15:48:04.777Z,38.30
2018-06-05T15:50:32.664Z,38.80
2018-06-05T15:53:00.444Z,38.80
2018-06-05T15:55:28.308Z,39.50
2018-06-05T15:57:56.178Z,38.30
2018-06-05T16:00:24.070Z,38.50
2018-06-05T16:02:51.937Z,38.70
2018-06-05T16:07:47.677Z,38.40
2018-06-05T16:10:15.580Z,38.40
2018-06-05T16:12:43.463Z,39.60
2018-06-05T16:15:11.341Z,40.30
2018-06-05T16:17:39.197Z,41.00
2018-06-05T16:20:07.077Z,41.90
2018-06-05T16:22:34.925Z,42.00
2018-06-05T16:25:02.824Z,41.70
2018-06-05T16:27:30.642Z,41.80
2018-06-05T16:29:58.755Z,42.80
2018-06-05T16:32:26.684Z,42.70
2018-06-05T16:34:54.577Z,42.60
2018-06-05T16:37:22.348Z,43.20
2018-06-05T16:39:50.287Z,43.50
2018-06-05T16:42:18.223Z,44.80
2018-06-05T16:44:46.127Z,45.20
2018-06-05T16:47:14.149Z,44.80
2018-06-05T16:52:09.842Z,45.20
2018-06-05T16:54:37.735Z,45.90
2018-06-05T16:57:05.845Z,46.20
2018-06-05T16:59:33.702Z,46.70
2018-06-05T17:02:01.643Z,46.70
2018-06-05T17:04:29.583Z,46.70
2018-06-05T17:06:57.677Z,45.10
2018-06-05T17:09:26.293Z,45.20
2018-06-05T17:11:54.345Z,45.60
2018-06-05T17:14:22.280Z,46.10
2018-06-05T17:16:50.188Z,46.60
2018-06-05T17:19:18.053Z,46.90
2018-06-05T17:21:45.994Z,47.50
2018-06-05T17:26:41.804Z,48.30
2018-06-05T17:29:09.641Z,49.10
2018-06-05T17:31:37.565Z,49.30
2018-06-05T17:34:05.577Z,50.00
2018-06-05T17:36:37.062Z,50.30
2018-06-05T17:39:07.096Z,50.50
2018-06-05T17:41:35.132Z,50.90
2018-06-05T17:44:03.314Z,51.60
2018-06-05T17:46:31.277Z,51.80
2018-06-05T17:48:59.137Z,52.20
2018-06-05T17:53:54.898Z,53.50
2018-06-05T17:56:22.709Z,54.40
2018-06-05T17:58:50.537Z,54.50
2018-06-05T18:01:18.367Z,55.40
2018-06-05T18:03:46.253Z,55.60
2018-06-05T18:06:14.196Z,57.50
2018-06-05T18:08:42.076Z,58.10
2018-06-05T18:11:09.901Z,57.60
2018-06-05T18:13:37.784Z,58.00
2018-06-05T18:16:05.621Z,58.50
2018-06-05T18:18:33.623Z,58.80
2018-06-05T18:21:01.515Z,59.20
2018-06-05T18:23:29.404Z,59.80
2018-06-05T18:25:57.229Z,59.70
2018-06-05T18:28:25.088Z,60.40
2018-06-05T18:30:52.921Z,60.40
2018-06-05T18:33:20.807Z,60.90
2018-06-05T18:35:48.699Z,60.00
2018-06-05T18:38:16.624Z,61.10
2018-06-05T18:40:44.690Z,61.70
2018-06-05T18:43:13.327Z,61.50
2018-06-05T18:45:42.082Z,62.20
2018-06-05T18:48:10.046Z,62.60
2018-06-05T18:50:37.898Z,63.20
2018-06-05T18:53:05.806Z,63.70
2018-06-05T18:55:33.751Z,62.80
2018-06-05T18:58:01.676Z,63.20
2018-06-05T19:00:29.581Z,63.70
2018-06-05T19:02:57.410Z,63.90
2018-06-05T19:05:25.347Z,63.80
2018-06-05T19:07:53.218Z,64.00
2018-06-05T19:10:21.081Z,64.50
2018-06-05T19:12:48.909Z,64.60
2018-06-05T19:15:16.808Z,64.50
2018-06-05T19:17:45.515Z,64.30
2018-06-05T19:20:13.413Z,65.20
2018-06-05T19:22:41.328Z,65.50
2018-06-05T19:25:09.193Z,64.80
2018-06-05T19:30:04.945Z,66.80
2018-06-05T19:32:32.821Z,67.10
2018-06-05T19:35:00.615Z,67.00
2018-06-05T19:37:29.357Z,67.30
2018-06-05T19:39:58.499Z,68.20
2018-06-05T19:42:26.758Z,68.40
2018-06-05T19:44:54.849Z,68.20
2018-06-05T19:49:53.720Z,69.00
2018-06-05T19:52:27.616Z,69.20
2018-06-05T19:54:57.732Z,69.60
2018-06-05T19:57:28.482Z,69.50
2018-06-05T19:59:59.212Z,71.20
2018-06-05T20:05:00.296Z,71.20
2018-06-05T20:07:30.888Z,70.30
2018-06-05T20:10:05.516Z,72.10
2018-06-05T20:12:39.137Z,72.40
2018-06-05T20:15:07.526Z,71.60
2018-06-05T20:17:35.377Z,73.10
2018-06-05T20:20:03.556Z,72.80
2018-06-05T20:22:31.366Z,75.40
2018-06-05T20:24:59.265Z,75.10
2018-06-05T20:27:27.165Z,75.40
2018-06-05T20:29:54.955Z,75.90
2018-06-05T20:32:22.792Z,76.80
2018-06-05T20:34:50.642Z,77.80
2018-06-05T20:37:18.545Z,77.80
2018-06-05T20:39:46.769Z,75.70
2018-06-05T20:42:14.604Z,77.50
2018-06-05T20:44:44.337Z,76.50
2018-06-05T20:47:14.606Z,77.90
2018-06-05T20:49:42.450Z,77.50
2018-06-05T20:52:10.329Z,79.10
2018-06-05T20:54:38.281Z,79.20
2018-06-05T20:57:06.243Z,78.50
2018-06-05T20:59:34.021Z,79.40
2018-06-05T21:02:01.917Z,79.80
2018-06-05T21:04:29.779Z,79.00
2018-06-05T21:06:57.629Z,78.90
2018-06-05T21:09:25.565Z,80.70
2018-06-05T21:11:53.609Z,79.60
2018-06-05T21:14:21.470Z,79.50
2018-06-05T21:16:49.365Z,80.60
2018-06-05T21:19:17.228Z,80.90
2018-06-05T21:24:13.021Z,80.40
2018-06-05T21:26:40.860Z,80.10
2018-06-05T21:29:08.722Z,81.00
2018-06-05T21:31:36.585Z,81.30
2018-06-05T21:34:04.428Z,79.30
2018-06-05T21:36:32.273Z,81.70
2018-06-05T21:39:00.131Z,80.60
2018-06-05T21:41:28.113Z,81.20
2018-06-05T21:43:55.997Z,81.60
2018-06-05T21:46:23.895Z,81.50
2018-06-05T21:48:51.845Z,82.50
2018-06-05T21:51:19.753Z,81.90
2018-06-05T21:53:47.575Z,81.90
2018-06-05T21:56:15.449Z,81.70
2018-06-05T21:58:43.280Z,80.80
2018-06-05T22:01:11.131Z,83.10
2018-06-05T22:03:39.049Z,80.80
2018-06-05T22:06:06.900Z,82.70
2018-06-05T22:11:02.581Z,82.40
2018-06-05T22:13:30.377Z,82.60
2018-06-05T22:15:58.161Z,83.30
2018-06-05T22:18:25.998Z,83.40
2018-06-05T22:20:53.836Z,83.10
2018-06-05T22:23:21.671Z,84.10
2018-06-05T22:25:49.616Z,83.40
2018-06-05T22:28:17.533Z,84.50
2018-06-05T22:30:45.425Z,83.70
2018-06-05T22:33:13.243Z,85.00
2018-06-05T22:35:41.093Z,84.50
2018-06-05T22:38:08.997Z,84.70
2018-06-05T22:40:36.808Z,84.10
2018-06-05T22:43:04.724Z,84.80
2018-06-05T22:45:32.641Z,84.10
2018-06-05T22:48:00.581Z,84.50
2018-06-05T22:50:28.461Z,85.30
2018-06-05T22:52:56.317Z,85.40
2018-06-05T22:55:24.125Z,85.30
2018-06-05T22:57:52.029Z,84.40
2018-06-05T23:00:30.097Z,84.90
2018-06-05T23:02:57.898Z,85.50
2018-06-05T23:05:25.837Z,85.90
2018-06-05T23:07:53.725Z,85.70
2018-06-05T23:10:21.549Z,85.50
2018-06-05T23:12:49.403Z,86.10
2018-06-05T23:15:17.343Z,85.70
2018-06-05T23:17:45.895Z,85.90
2018-06-05T23:20:13.826Z,86.20
2018-06-05T23:22:41.758Z,85.00
2018-06-05T23:25:09.721Z,86.10
2018-06-05T23:27:37.641Z,86.20
2018-06-05T23:32:33.694Z,87.10
2018-06-05T23:39:57.293Z,86.70
2018-06-05T23:42:25.203Z,86.30
2018-06-05T23:44:53.137Z,86.90
2018-06-05T23:49:48.841Z,87.00
2018-06-05T23:52:16.698Z,87.20
2018-06-05T23:54:44.508Z,86.80
2018-06-05T23:57:12.401Z,87.00
2018-06-05T23:59:40.273Z,87.50
